aviador You're here:

KPHL Decoded Metar

PHILADELPHIA in PA, USA
Report Time2017-08-16 18:54:00
UTC Time2017-08-16 19:28:26
Flight Rules vfr VFR
Wind300° at 07 kt
W.Decomp.*RWY 35: 5.4 kt HW 4.5 kt LCW
RWY 27: 5.4 kt HW 4.5 kt RCW
RWY 26: 4.5 kt HW 5.4 kt RCW
W.Rank300° ranks 10
Current wind is below 300° avg. (10.1)
Visibility9999 m
Phenomena:N/A
Clouds:Scattered 045 Hf
Scattered 220 Hf
Scattered 300 Hf
Expected CloudBase > 5,200 ft AGL from Temp-Dew spread
CeilingNone
Temp31°C (ISA +16)
Dew Point18°C (46% RH)
Heat Index31.9°C
QNH1015 hPa
Density Alt2,110 ft
Elevation59 ft
Report Wrong Elevation
Raw Report
METAR KPHL 161854Z 30007KT 10SM SCT045 SCT220 SCT300 31/18 A2997 RMK
AO2 SLP148 T03060178 $=

Extra information for KPHL:More info

Metar Taf Metar & Taf Last 4 Metars F.Rules Stats Wind Profile Meteogram Temp Stats Airport Information Weather charts Add Link Nearby VenuesMetar ALERT Operation Metar Decoded Social comments

AIRNAV info for KPHL